createdAt,value
2018-12-07T00:01:54.649Z,11.10
2018-12-07T00:04:22.354Z,11.10
2018-12-07T00:06:50.143Z,11.10
2018-12-07T00:09:17.909Z,11.10
2018-12-07T00:11:45.743Z,11.10
2018-12-07T00:14:13.620Z,11.10
2018-12-07T00:16:41.442Z,11.00
2018-12-07T00:19:09.230Z,11.10
2018-12-07T00:21:36.760Z,11.10
2018-12-07T00:24:04.315Z,11.10
2018-12-07T00:26:31.963Z,11.00
2018-12-07T00:28:59.519Z,11.10
2018-12-07T00:31:27.196Z,11.00
2018-12-07T00:33:54.805Z,11.00
2018-12-07T00:36:22.324Z,11.10
2018-12-07T00:38:49.890Z,11.10
2018-12-07T00:41:17.553Z,11.10
2018-12-07T00:43:45.090Z,11.10
2018-12-07T00:46:13.217Z,11.10
2018-12-07T00:48:40.925Z,11.10
2018-12-07T00:51:08.502Z,11.10
2018-12-07T00:53:36.173Z,11.10
2018-12-07T00:56:04.106Z,11.10
2018-12-07T00:58:31.634Z,11.10
2018-12-07T01:00:59.204Z,11.10
2018-12-07T01:03:26.951Z,11.10
2018-12-07T01:05:54.600Z,11.00
2018-12-07T01:08:22.111Z,11.00
2018-12-07T01:10:49.653Z,10.90
2018-12-07T01:13:17.230Z,10.90
2018-12-07T01:15:44.754Z,10.90
2018-12-07T01:18:12.353Z,11.00
2018-12-07T01:20:39.894Z,10.90
2018-12-07T01:23:07.445Z,10.90
2018-12-07T01:25:35.224Z,11.00
2018-12-07T01:28:02.940Z,11.00
2018-12-07T01:30:30.455Z,11.00
2018-12-07T01:32:58.121Z,10.90
2018-12-07T01:35:25.670Z,10.80
2018-12-07T01:37:53.199Z,10.90
2018-12-07T01:40:20.732Z,10.90
2018-12-07T01:42:48.333Z,11.00
2018-12-07T01:45:16.103Z,10.90
2018-12-07T01:47:46.088Z,10.90
2018-12-07T01:50:14.964Z,10.90
2018-12-07T01:52:42.494Z,10.90
2018-12-07T01:55:10.493Z,10.90
2018-12-07T01:57:38.153Z,10.90
2018-12-07T02:00:08.068Z,10.90
2018-12-07T02:02:35.607Z,10.80
2018-12-07T02:05:03.298Z,10.80
2018-12-07T02:07:33.079Z,10.80
2018-12-07T02:10:00.865Z,10.80
2018-12-07T02:12:28.642Z,10.70
2018-12-07T02:14:56.180Z,10.70
2018-12-07T02:17:23.697Z,10.70
2018-12-07T02:19:51.264Z,10.70
2018-12-07T02:22:19.090Z,10.70
2018-12-07T02:24:46.634Z,10.70
2018-12-07T02:27:14.159Z,10.60
2018-12-07T02:29:42.010Z,10.60
2018-12-07T02:32:09.814Z,10.50
2018-12-07T02:34:37.549Z,10.60
2018-12-07T02:37:05.210Z,10.50
2018-12-07T02:39:32.808Z,10.50
2018-12-07T02:42:00.427Z,10.60
2018-12-07T02:44:27.975Z,10.50
2018-12-07T02:46:55.558Z,10.50
2018-12-07T02:49:23.093Z,10.50
2018-12-07T02:51:50.742Z,10.50
2018-12-07T02:54:18.374Z,10.50
2018-12-07T02:56:46.020Z,10.50
2018-12-07T02:59:13.782Z,10.50
2018-12-07T03:01:41.823Z,10.40
2018-12-07T03:04:09.568Z,10.50
2018-12-07T03:06:37.266Z,10.50
2018-12-07T03:09:05.287Z,10.40
2018-12-07T03:11:32.817Z,10.50
2018-12-07T03:14:00.394Z,6.80
2018-12-07T03:16:27.922Z,10.50
2018-12-07T03:18:55.745Z,10.50
2018-12-07T03:21:23.348Z,10.50
2018-12-07T03:23:50.896Z,10.50
2018-12-07T03:26:18.470Z,10.50
2018-12-07T03:28:46.252Z,10.50
2018-12-07T03:31:14.206Z,10.50
2018-12-07T03:33:41.757Z,10.40
2018-12-07T03:36:09.382Z,10.40
2018-12-07T03:38:37.021Z,10.30
2018-12-07T03:41:04.569Z,10.30
2018-12-07T03:43:32.214Z,10.20
2018-12-07T03:45:59.828Z,10.20
2018-12-07T03:48:27.449Z,10.20
2018-12-07T03:50:54.997Z,10.20
2018-12-07T03:53:22.558Z,10.20
2018-12-07T03:55:50.095Z,10.20
2018-12-07T03:58:17.922Z,10.20
2018-12-07T04:00:45.518Z,10.20
2018-12-07T04:03:13.450Z,10.20
2018-12-07T04:05:41.019Z,10.20
2018-12-07T04:08:09.062Z,10.20
2018-12-07T04:10:38.038Z,10.20
2018-12-07T04:13:05.735Z,10.20
2018-12-07T04:15:33.676Z,10.20
2018-12-07T04:18:01.342Z,10.20
2018-12-07T04:20:28.950Z,10.20
2018-12-07T04:22:56.623Z,10.20
2018-12-07T04:25:24.148Z,10.20
2018-12-07T04:27:51.863Z,10.20
2018-12-07T04:30:23.930Z,10.20
2018-12-07T04:32:51.772Z,10.20
2018-12-07T04:35:19.510Z,10.20
2018-12-07T04:37:47.438Z,10.30
2018-12-07T04:40:14.960Z,10.30
2018-12-07T04:42:42.623Z,10.20
2018-12-07T04:45:10.139Z,10.30
2018-12-07T04:47:37.690Z,10.30
2018-12-07T04:50:05.406Z,10.30
2018-12-07T04:52:32.944Z,10.20
2018-12-07T04:55:00.614Z,10.20
2018-12-07T04:57:28.459Z,10.30
2018-12-07T04:59:55.999Z,10.30
2018-12-07T05:02:23.798Z,10.30
2018-12-07T05:04:51.322Z,10.20
2018-12-07T05:07:19.035Z,10.30
2018-12-07T05:09:46.818Z,10.30
2018-12-07T05:12:14.383Z,10.30
2018-12-07T05:14:41.929Z,10.30
2018-12-07T05:17:09.630Z,10.30
2018-12-07T05:19:37.159Z,10.30
2018-12-07T05:22:05.004Z,10.30
2018-12-07T05:24:34.481Z,12.20
2018-12-07T05:27:02.429Z,10.40
2018-12-07T05:29:30.004Z,10.30
2018-12-07T05:31:57.739Z,10.30
2018-12-07T05:34:25.373Z,10.30
2018-12-07T05:36:52.901Z,10.40
2018-12-07T05:39:20.688Z,10.40
2018-12-07T05:41:48.443Z,10.30
2018-12-07T05:44:16.174Z,11.50
2018-12-07T05:46:43.718Z,10.40
2018-12-07T05:49:11.259Z,10.30
2018-12-07T05:51:38.863Z,10.30
2018-12-07T05:54:06.376Z,10.30
2018-12-07T05:56:33.958Z,10.30
2018-12-07T05:59:01.528Z,10.20
2018-12-07T06:01:29.275Z,10.20
2018-12-07T06:03:56.839Z,10.20
2018-12-07T06:06:24.547Z,10.20
2018-12-07T06:08:52.109Z,10.10
2018-12-07T06:11:19.659Z,10.20
2018-12-07T06:13:47.381Z,10.20
2018-12-07T06:16:15.194Z,10.20
2018-12-07T06:18:42.907Z,10.20
2018-12-07T06:21:10.689Z,10.10
2018-12-07T06:23:38.314Z,10.10
2018-12-07T06:26:05.847Z,10.10
2018-12-07T06:28:33.434Z,10.10
2018-12-07T06:31:01.073Z,10.10
2018-12-07T06:33:28.655Z,10.00
2018-12-07T06:35:56.287Z,10.10
2018-12-07T06:38:23.958Z,10.00
2018-12-07T06:40:51.759Z,10.20
2018-12-07T06:43:19.295Z,10.20
2018-12-07T06:45:46.878Z,10.10
2018-12-07T06:48:14.538Z,10.20
2018-12-07T06:50:42.226Z,10.10
2018-12-07T06:53:09.756Z,10.10
2018-12-07T06:55:37.293Z,10.00
2018-12-07T06:58:04.909Z,10.00
2018-12-07T07:00:32.464Z,10.00
2018-12-07T07:03:00.171Z,10.00
2018-12-07T07:05:27.944Z,10.00
2018-12-07T07:07:55.502Z,10.00
2018-12-07T07:10:23.433Z,10.10
2018-12-07T07:12:50.970Z,10.10
2018-12-07T07:15:18.914Z,10.10
2018-12-07T07:17:46.722Z,10.20
2018-12-07T07:20:14.453Z,10.20
2018-12-07T07:22:41.963Z,10.20
2018-12-07T07:25:09.662Z,10.20
2018-12-07T07:27:37.656Z,10.20
2018-12-07T07:30:06.326Z,10.10
2018-12-07T07:32:33.867Z,10.20
2018-12-07T07:35:01.413Z,10.10
2018-12-07T07:37:29.217Z,10.00
2018-12-07T07:39:56.868Z,10.10
2018-12-07T07:42:24.672Z,10.10
2018-12-07T07:44:52.228Z,10.20
2018-12-07T07:47:19.897Z,10.20
2018-12-07T07:49:47.449Z,10.30
2018-12-07T07:52:14.977Z,10.30
2018-12-07T07:54:42.519Z,10.30
2018-12-07T07:57:10.137Z,10.30
2018-12-07T07:59:37.687Z,10.50
2018-12-07T08:02:05.749Z,10.50
2018-12-07T08:04:33.258Z,10.60
2018-12-07T08:07:00.873Z,10.60
2018-12-07T08:09:28.534Z,10.60
2018-12-07T08:11:56.258Z,10.70
2018-12-07T08:14:24.060Z,10.60
2018-12-07T08:16:51.593Z,10.70
2018-12-07T08:19:19.482Z,10.80
2018-12-07T08:21:47.053Z,10.80
2018-12-07T08:24:14.721Z,10.80
2018-12-07T08:26:42.289Z,10.90
2018-12-07T08:29:09.994Z,10.90
2018-12-07T08:31:37.726Z,10.90
2018-12-07T08:34:05.278Z,11.00
2018-12-07T08:36:33.081Z,10.90
2018-12-07T08:39:00.681Z,11.00
2018-12-07T08:41:28.283Z,11.00
2018-12-07T08:43:56.121Z,11.00
2018-12-07T08:46:23.698Z,11.00
2018-12-07T08:48:51.272Z,11.00
2018-12-07T08:51:19.088Z,11.00
2018-12-07T08:53:46.615Z,11.00
2018-12-07T08:56:14.407Z,11.00
2018-12-07T08:58:41.971Z,11.00
2018-12-07T09:01:09.537Z,11.10
2018-12-07T09:03:37.352Z,11.10
2018-12-07T09:06:04.921Z,11.10
2018-12-07T09:08:32.774Z,11.10
2018-12-07T09:11:00.554Z,11.10
2018-12-07T09:13:28.273Z,11.10
2018-12-07T09:15:55.845Z,13.90
2018-12-07T09:18:23.415Z,11.00
2018-12-07T09:20:54.186Z,11.00
2018-12-07T09:23:21.248Z,11.10
2018-12-07T09:25:48.895Z,11.00
2018-12-07T09:28:16.701Z,11.10
2018-12-07T09:30:44.287Z,11.10
2018-12-07T09:33:12.157Z,11.00
2018-12-07T09:35:40.651Z,10.90
2018-12-07T09:38:13.108Z,10.90
2018-12-07T09:40:38.304Z,10.80
2018-12-07T09:43:05.878Z,10.80
2018-12-07T09:45:33.497Z,10.90
2018-12-07T09:48:01.043Z,10.90
2018-12-07T09:50:28.618Z,10.90
2018-12-07T09:52:56.453Z,10.90
2018-12-07T09:55:24.062Z,11.00
2018-12-07T09:57:51.615Z,10.90
2018-12-07T10:00:19.251Z,11.00
2018-12-07T10:02:46.903Z,11.10
2018-12-07T10:05:14.519Z,11.00
2018-12-07T10:07:42.276Z,11.10
2018-12-07T10:10:10.217Z,11.10
2018-12-07T10:12:37.841Z,11.10
2018-12-07T10:15:05.474Z,11.00
2018-12-07T10:17:32.988Z,11.10
2018-12-07T10:20:00.798Z,11.10
2018-12-07T10:22:28.342Z,11.20
2018-12-07T10:24:55.863Z,11.20
2018-12-07T10:27:23.921Z,11.20
2018-12-07T10:29:51.491Z,11.20
2018-12-07T10:32:19.036Z,11.20
2018-12-07T10:34:46.850Z,11.20
2018-12-07T10:37:14.758Z,11.30
2018-12-07T10:39:42.322Z,11.20
2018-12-07T10:42:09.952Z,11.30
2018-12-07T10:44:37.548Z,11.30
2018-12-07T10:47:05.110Z,11.20
2018-12-07T10:49:32.683Z,11.30
2018-12-07T10:52:00.318Z,11.30
2018-12-07T10:54:29.369Z,11.30
2018-12-07T10:56:57.320Z,11.20
2018-12-07T10:59:25.204Z,11.20
2018-12-07T11:01:58.374Z,11.20
2018-12-07T11:04:31.578Z,11.20
2018-12-07T11:07:04.903Z,11.20
2018-12-07T11:09:37.966Z,11.10
2018-12-07T11:12:11.043Z,11.10
2018-12-07T11:14:44.228Z,11.10
2018-12-07T11:17:17.673Z,11.10
2018-12-07T11:22:52.452Z,11.20
2018-12-07T11:25:25.819Z,11.20
2018-12-07T11:27:59.014Z,11.20
2018-12-07T11:30:28.855Z,11.20
2018-12-07T11:33:02.354Z,11.20
2018-12-07T11:35:31.427Z,11.10
2018-12-07T11:37:59.269Z,11.00
2018-12-07T11:40:28.616Z,10.90
2018-12-07T11:42:56.406Z,10.90
2018-12-07T11:45:23.959Z,11.00
2018-12-07T11:47:51.478Z,11.00
2018-12-07T11:50:19.886Z,11.10
2018-12-07T11:52:47.437Z,11.10
2018-12-07T11:55:14.986Z,11.00
2018-12-07T11:57:42.502Z,11.00
2018-12-07T12:00:10.748Z,11.00
2018-12-07T12:02:38.452Z,11.00
2018-12-07T12:05:06.393Z,11.00
2018-12-07T12:07:33.925Z,11.00
2018-12-07T12:10:01.561Z,11.70
2018-12-07T12:12:29.204Z,11.00
2018-12-07T12:14:56.747Z,11.00
2018-12-07T12:17:24.660Z,11.00
2018-12-07T12:19:52.550Z,11.10
2018-12-07T12:22:20.600Z,11.10
2018-12-07T12:24:48.154Z,11.00
2018-12-07T12:27:15.906Z,11.00
2018-12-07T12:29:43.538Z,11.00
2018-12-07T12:32:11.264Z,11.10
2018-12-07T12:34:38.827Z,11.10
2018-12-07T12:37:06.433Z,11.20
2018-12-07T12:39:34.107Z,11.20
2018-12-07T12:42:01.959Z,11.30
2018-12-07T12:44:29.511Z,11.20
2018-12-07T12:46:57.036Z,11.20
2018-12-07T12:49:26.649Z,11.30
2018-12-07T12:51:54.748Z,11.40
2018-12-07T12:54:22.315Z,11.40
2018-12-07T12:56:50.041Z,11.40
2018-12-07T12:59:17.596Z,11.50
2018-12-07T13:01:45.182Z,11.40
2018-12-07T13:04:12.731Z,11.40
2018-12-07T13:06:40.435Z,11.30
2018-12-07T13:09:08.703Z,11.30
2018-12-07T13:11:37.019Z,11.30
2018-12-07T13:14:04.576Z,11.30
2018-12-07T13:16:32.195Z,11.40
2018-12-07T13:18:59.742Z,11.30
2018-12-07T13:21:27.321Z,11.20
2018-12-07T13:23:54.875Z,11.30
2018-12-07T13:26:22.414Z,11.30
2018-12-07T13:28:50.091Z,11.40
2018-12-07T13:31:17.845Z,11.50
2018-12-07T13:33:45.654Z,11.60
2018-12-07T13:36:13.209Z,11.50
2018-12-07T13:38:41.075Z,11.40
2018-12-07T13:41:08.793Z,11.50
2018-12-07T13:43:36.648Z,11.40
2018-12-07T13:46:04.737Z,11.40
2018-12-07T13:48:32.994Z,11.30
2018-12-07T13:51:00.900Z,11.30
2018-12-07T13:53:28.790Z,11.20
2018-12-07T13:55:56.433Z,11.20
2018-12-07T13:58:24.516Z,11.10
2018-12-07T14:00:52.210Z,11.10
2018-12-07T14:03:20.034Z,11.00
2018-12-07T14:05:47.999Z,10.90
2018-12-07T14:08:15.868Z,10.80
2018-12-07T14:10:43.672Z,10.80
2018-12-07T14:13:11.256Z,10.80
2018-12-07T14:15:39.226Z,10.70
2018-12-07T14:18:06.906Z,10.70
2018-12-07T14:20:34.803Z,10.60
2018-12-07T14:23:02.722Z,10.60
2018-12-07T14:25:30.515Z,10.60
2018-12-07T14:27:58.469Z,10.60
2018-12-07T14:30:26.200Z,10.60
2018-12-07T14:32:53.995Z,10.50
2018-12-07T14:35:21.964Z,10.60
2018-12-07T14:37:49.842Z,10.50
2018-12-07T14:40:17.826Z,10.50
2018-12-07T14:42:45.596Z,10.50
2018-12-07T14:45:14.298Z,10.50
2018-12-07T14:47:42.039Z,10.40
2018-12-07T14:50:09.801Z,10.40
2018-12-07T14:52:37.868Z,10.40
2018-12-07T14:55:05.628Z,10.30
2018-12-07T14:57:33.773Z,10.40
2018-12-07T15:00:01.726Z,10.40
2018-12-07T15:02:29.719Z,10.40
2018-12-07T15:04:57.554Z,10.40
2018-12-07T15:07:25.317Z,10.30
2018-12-07T15:09:53.221Z,10.20
2018-12-07T15:12:20.952Z,10.20
2018-12-07T15:14:49.059Z,10.10
2018-12-07T15:17:16.852Z,10.10
2018-12-07T15:19:44.668Z,10.00
2018-12-07T15:22:12.489Z,10.00
2018-12-07T15:24:40.585Z,10.00
2018-12-07T15:27:09.049Z,9.90
2018-12-07T15:29:37.648Z,9.90
2018-12-07T15:32:05.529Z,9.90
2018-12-07T15:34:33.364Z,9.90
2018-12-07T15:37:02.011Z,9.90
2018-12-07T15:39:29.624Z,9.80
2018-12-07T15:41:57.870Z,9.70
2018-12-07T15:44:25.542Z,9.80
2018-12-07T15:46:53.328Z,9.80
2018-12-07T15:49:21.296Z,9.80
2018-12-07T15:51:49.201Z,9.80
2018-12-07T15:54:16.970Z,9.90
2018-12-07T15:56:44.519Z,9.90
2018-12-07T15:59:12.397Z,10.00
2018-12-07T16:01:40.537Z,9.90
2018-12-07T16:04:08.491Z,9.90
2018-12-07T16:06:36.291Z,9.80
2018-12-07T16:09:06.775Z,9.80
2018-12-07T16:11:34.979Z,9.70
2018-12-07T16:14:02.973Z,9.70
2018-12-07T16:16:30.688Z,9.70
2018-12-07T16:18:58.547Z,9.60
2018-12-07T16:21:26.447Z,9.50
2018-12-07T16:23:54.240Z,9.40
2018-12-07T16:26:21.965Z,9.40
2018-12-07T16:28:49.823Z,9.40
2018-12-07T16:31:18.047Z,9.40
2018-12-07T16:33:46.406Z,9.40
2018-12-07T16:36:14.250Z,9.50
2018-12-07T16:38:41.978Z,9.40
2018-12-07T16:41:09.764Z,9.50
2018-12-07T16:43:37.658Z,9.50
2018-12-07T16:46:05.614Z,9.50
2018-12-07T16:48:33.504Z,9.60
2018-12-07T16:51:01.390Z,9.50
2018-12-07T16:53:31.092Z,9.60
2018-12-07T16:55:59.026Z,9.50
2018-12-07T16:58:27.283Z,9.40
2018-12-07T17:00:55.288Z,9.40
2018-12-07T17:03:23.233Z,9.40
2018-12-07T17:05:51.210Z,9.30
2018-12-07T17:08:19.115Z,9.40
2018-12-07T17:10:47.121Z,9.30
2018-12-07T17:13:15.296Z,9.30
2018-12-07T17:15:43.153Z,9.20
2018-12-07T17:18:11.052Z,9.30
2018-12-07T17:20:39.024Z,9.30
2018-12-07T17:23:06.967Z,9.40
2018-12-07T17:25:34.691Z,9.40
2018-12-07T17:28:02.566Z,9.30
2018-12-07T17:30:30.615Z,9.30
2018-12-07T17:32:58.637Z,9.30
2018-12-07T17:35:26.602Z,9.30
2018-12-07T17:37:54.363Z,9.30
2018-12-07T17:40:22.769Z,9.30
2018-12-07T17:42:50.395Z,9.20
2018-12-07T17:45:18.196Z,9.10
2018-12-07T17:47:46.035Z,9.10
2018-12-07T17:50:14.264Z,7.00
2018-12-07T17:52:42.500Z,9.00
2018-12-07T17:55:11.066Z,9.00
2018-12-07T17:57:38.818Z,9.00
2018-12-07T18:00:08.702Z,9.10
2018-12-07T18:02:36.589Z,9.10
2018-12-07T18:05:05.340Z,8.90
2018-12-07T18:07:33.393Z,8.90
2018-12-07T18:10:01.307Z,8.90
2018-12-07T18:12:29.425Z,9.00
2018-12-07T18:14:57.207Z,9.00
2018-12-07T18:17:25.025Z,8.90
2018-12-07T18:19:53.012Z,8.90
2018-12-07T18:22:20.880Z,8.70
2018-12-07T18:24:49.022Z,8.80
2018-12-07T18:27:16.877Z,8.80
2018-12-07T18:29:45.040Z,8.90
2018-12-07T18:32:13.359Z,8.80
2018-12-07T18:34:41.295Z,8.80
2018-12-07T18:37:09.842Z,8.70
2018-12-07T18:39:37.680Z,8.70
2018-12-07T18:42:05.594Z,8.90
2018-12-07T18:44:33.651Z,8.90
2018-12-07T18:47:01.612Z,8.90
2018-12-07T18:49:29.635Z,8.80
2018-12-07T18:51:57.888Z,8.70
2018-12-07T18:54:26.248Z,8.70
2018-12-07T18:56:54.384Z,8.70
2018-12-07T18:59:22.525Z,8.70
2018-12-07T19:01:50.216Z,8.60
2018-12-07T19:04:18.606Z,8.70
2018-12-07T19:06:46.520Z,8.70
2018-12-07T19:09:14.228Z,8.60
2018-12-07T19:11:42.306Z,8.60
2018-12-07T19:14:10.598Z,8.70
2018-12-07T19:16:38.272Z,8.60
2018-12-07T19:19:06.085Z,8.60
2018-12-07T19:21:33.929Z,8.60
2018-12-07T19:24:01.767Z,8.60
2018-12-07T19:26:29.747Z,8.60
2018-12-07T19:28:57.490Z,8.50
2018-12-07T19:31:25.192Z,8.40
2018-12-07T19:33:53.222Z,8.30
2018-12-07T19:36:21.418Z,8.10
2018-12-07T19:38:49.319Z,8.00
2018-12-07T19:41:17.420Z,7.90
2018-12-07T19:43:45.359Z,7.80
2018-12-07T19:46:13.655Z,7.70
2018-12-07T19:48:41.813Z,7.50
2018-12-07T19:51:09.587Z,7.50
2018-12-07T19:53:37.363Z,7.30
2018-12-07T19:56:05.370Z,7.00
2018-12-07T19:58:33.098Z,6.70
2018-12-07T20:01:00.767Z,6.50
2018-12-07T20:03:28.658Z,6.40
2018-12-07T20:05:56.459Z,6.30
2018-12-07T20:08:24.318Z,6.10
2018-12-07T20:10:52.270Z,6.00
2018-12-07T20:13:20.318Z,5.80
2018-12-07T20:15:48.033Z,5.90
2018-12-07T20:18:15.887Z,5.70
2018-12-07T20:20:43.865Z,5.70
2018-12-07T20:23:11.665Z,5.70
2018-12-07T20:25:39.824Z,5.60
2018-12-07T20:28:07.787Z,5.50
2018-12-07T20:30:35.864Z,5.60
2018-12-07T20:33:03.485Z,5.60
2018-12-07T20:35:31.648Z,5.60
2018-12-07T20:37:59.540Z,5.60
2018-12-07T20:40:27.249Z,5.60
2018-12-07T20:42:55.052Z,5.60
2018-12-07T20:45:23.051Z,5.60
2018-12-07T20:47:50.938Z,5.50
2018-12-07T20:50:18.660Z,5.50
2018-12-07T20:52:46.791Z,5.60
2018-12-07T20:55:14.888Z,5.50
2018-12-07T20:57:42.808Z,5.50
2018-12-07T21:00:10.458Z,5.40
2018-12-07T21:02:38.277Z,5.40
2018-12-07T21:08:05.770Z,5.50
2018-12-07T21:10:58.372Z,5.40
2018-12-07T21:13:41.355Z,5.50
2018-12-07T21:16:32.585Z,5.50
2018-12-07T21:19:00.740Z,5.60
2018-12-07T21:21:28.929Z,5.70
2018-12-07T21:23:57.094Z,5.70
2018-12-07T21:26:25.025Z,5.60
2018-12-07T21:28:52.906Z,5.70
2018-12-07T21:31:20.742Z,5.80
2018-12-07T21:33:51.787Z,5.90
2018-12-07T21:36:37.909Z,5.90
2018-12-07T21:39:11.983Z,5.90
2018-12-07T21:41:39.876Z,5.80
2018-12-07T21:44:07.872Z,5.80
2018-12-07T21:46:35.950Z,5.70
2018-12-07T21:49:04.033Z,5.80
2018-12-07T21:51:36.682Z,5.70
2018-12-07T21:54:04.743Z,5.50
2018-12-07T21:56:32.685Z,5.40
2018-12-07T21:59:00.495Z,5.30
2018-12-07T22:01:28.277Z,5.20
2018-12-07T22:03:56.154Z,5.20
2018-12-07T22:06:23.940Z,5.20
2018-12-07T22:08:51.730Z,5.10
2018-12-07T22:11:19.705Z,5.10
2018-12-07T22:13:47.478Z,5.00
2018-12-07T22:16:15.564Z,5.00
2018-12-07T22:18:43.640Z,5.20
2018-12-07T22:21:11.245Z,5.10
2018-12-07T22:23:39.472Z,7.10
2018-12-07T22:26:07.633Z,5.20
2018-12-07T22:28:35.806Z,5.20
2018-12-07T22:31:03.732Z,5.30
2018-12-07T22:33:31.706Z,5.30
2018-12-07T22:35:59.769Z,5.50
2018-12-07T22:38:27.717Z,5.60
2018-12-07T22:40:55.688Z,5.60
2018-12-07T22:43:26.008Z,5.70
2018-12-07T22:45:53.249Z,5.80
2018-12-07T22:48:20.898Z,5.80
2018-12-07T22:50:48.591Z,5.70
2018-12-07T22:53:16.316Z,5.70
2018-12-07T22:55:43.869Z,5.60
2018-12-07T22:58:11.433Z,5.60
2018-12-07T23:00:41.236Z,5.60
2018-12-07T23:03:08.809Z,5.60
2018-12-07T23:05:36.435Z,5.60
2018-12-07T23:08:04.013Z,5.40
2018-12-07T23:10:31.539Z,5.30
2018-12-07T23:12:59.454Z,5.20
2018-12-07T23:15:27.101Z,5.10
2018-12-07T23:17:54.759Z,5.10
2018-12-07T23:20:22.328Z,5.00
2018-12-07T23:22:50.394Z,5.00
2018-12-07T23:25:18.128Z,5.00
2018-12-07T23:27:45.755Z,5.00
2018-12-07T23:30:13.378Z,5.00
2018-12-07T23:32:41.193Z,5.00
2018-12-07T23:35:08.733Z,5.00
2018-12-07T23:37:36.419Z,5.00
2018-12-07T23:40:04.752Z,5.10
2018-12-07T23:42:32.622Z,5.20
2018-12-07T23:45:00.221Z,5.20
2018-12-07T23:47:27.814Z,5.10
2018-12-07T23:49:55.378Z,5.20
2018-12-07T23:52:22.939Z,5.10
2018-12-07T23:54:50.655Z,5.00
2018-12-07T23:57:18.480Z,4.80
2018-12-07T23:59:46.133Z,4.70
